sensor_id;sensor_type;location;lat;lon;timestamp;temperature;humidity
7378;DHT22;3730;50.856;12.776;2023-04-24T00:13:12;12.60;99.90
7378;DHT22;3730;50.856;12.776;2023-04-24T00:15:37;12.10;99.90
7378;DHT22;3730;50.856;12.776;2023-04-24T00:18:03;12.00;99.90
7378;DHT22;3730;50.856;12.776;2023-04-24T00:20:29;12.00;99.90
7378;DHT22;3730;50.856;12.776;2023-04-24T00:23:03;11.90;99.90
7378;DHT22;3730;50.856;12.776;2023-04-24T00:25:29;12.00;99.90
7378;DHT22;3730;50.856;12.776;2023-04-24T00:27:55;11.90;99.90
7378;DHT22;3730;50.856;12.776;2023-04-24T00:30:20;12.00;99.90
7378;DHT22;3730;50.856;12.776;2023-04-24T00:32:46;11.90;99.90
7378;DHT22;3730;50.856;12.776;2023-04-24T00:35:11;12.20;99.90
7378;DHT22;3730;50.856;12.776;2023-04-24T00:37:37;11.90;99.90
7378;DHT22;3730;50.856;12.776;2023-04-24T00:40:03;11.90;99.90
7378;DHT22;3730;50.856;12.776;2023-04-24T00:42:29;11.80;99.90
7378;DHT22;3730;50.856;12.776;2023-04-24T00:44:56;12.10;99.90
7378;DHT22;3730;50.856;12.776;2023-04-24T00:47:23;11.80;99.90
7378;DHT22;3730;50.856;12.776;2023-04-24T00:49:49;12.00;99.90
7378;DHT22;3730;50.856;12.776;2023-04-24T00:52:15;11.80;99.90
7378;DHT22;3730;50.856;12.776;2023-04-24T00:54:44;12.30;99.90
7378;DHT22;3730;50.856;12.776;2023-04-24T00:57:10;11.70;99.90
7378;DHT22;3730;50.856;12.776;2023-04-24T00:59:36;12.00;99.90
7378;DHT22;3730;50.856;12.776;2023-04-24T01:02:02;12.40;99.90
7378;DHT22;3730;50.856;12.776;2023-04-24T01:04:28;12.10;99.90
7378;DHT22;3730;50.856;12.776;2023-04-24T01:06:55;11.60;99.90
7378;DHT22;3730;50.856;12.776;2023-04-24T01:09:23;11.60;99.90
7378;DHT22;3730;50.856;12.776;2023-04-24T01:11:49;12.00;99.90
7378;DHT22;3730;50.856;12.776;2023-04-24T01:14:15;11.60;99.90
7378;DHT22;3730;50.856;12.776;2023-04-24T01:16:41;11.60;99.90
7378;DHT22;3730;50.856;12.776;2023-04-24T01:19:07;11.60;99.90
7378;DHT22;3730;50.856;12.776;2023-04-24T01:21:36;11.60;99.90
7378;DHT22;3730;50.856;12.776;2023-04-24T01:24:03;11.60;99.90
7378;DHT22;3730;50.856;12.776;2023-04-24T01:26:29;11.60;99.90
7378;DHT22;3730;50.856;12.776;2023-04-24T01:28:56;11.60;99.90
7378;DHT22;3730;50.856;12.776;2023-04-24T01:31:22;11.70;99.90
7378;DHT22;3730;50.856;12.776;2023-04-24T01:33:48;11.60;99.90
7378;DHT22;3730;50.856;12.776;2023-04-24T01:36:14;11.90;99.90
7378;DHT22;3730;50.856;12.776;2023-04-24T01:38:40;11.60;99.90
7378;DHT22;3730;50.856;12.776;2023-04-24T01:41:06;11.70;99.90
7378;DHT22;3730;50.856;12.776;2023-04-24T01:43:32;11.60;99.90
7378;DHT22;3730;50.856;12.776;2023-04-24T01:45:57;11.60;99.90
7378;DHT22;3730;50.856;12.776;2023-04-24T01:48:23;11.60;99.90
7378;DHT22;3730;50.856;12.776;2023-04-24T01:50:49;11.50;99.90
7378;DHT22;3730;50.856;12.776;2023-04-24T01:53:14;11.50;99.90
7378;DHT22;3730;50.856;12.776;2023-04-24T01:55:40;11.50;99.90
7378;DHT22;3730;50.856;12.776;2023-04-24T01:58:06;11.50;99.90
7378;DHT22;3730;50.856;12.776;2023-04-24T02:00:32;11.60;99.90
7378;DHT22;3730;50.856;12.776;2023-04-24T02:02:58;11.50;99.90
7378;DHT22;3730;50.856;12.776;2023-04-24T02:05:23;11.50;99.90
7378;DHT22;3730;50.856;12.776;2023-04-24T02:07:49;12.20;99.90
7378;DHT22;3730;50.856;12.776;2023-04-24T02:10:15;11.50;99.90
7378;DHT22;3730;50.856;12.776;2023-04-24T02:12:40;11.50;99.90
7378;DHT22;3730;50.856;12.776;2023-04-24T02:15:06;11.50;99.90
7378;DHT22;3730;50.856;12.776;2023-04-24T02:17:32;11.40;99.90
7378;DHT22;3730;50.856;12.776;2023-04-24T02:19:58;11.40;99.90
7378;DHT22;3730;50.856;12.776;2023-04-24T02:22:23;11.60;99.90
7378;DHT22;3730;50.856;12.776;2023-04-24T02:24:49;11.80;99.90
7378;DHT22;3730;50.856;12.776;2023-04-24T02:27:14;11.40;99.90
7378;DHT22;3730;50.856;12.776;2023-04-24T02:29:40;11.40;99.90
7378;DHT22;3730;50.856;12.776;2023-04-24T02:32:06;11.30;99.90
7378;DHT22;3730;50.856;12.776;2023-04-24T02:34:32;11.30;99.90
7378;DHT22;3730;50.856;12.776;2023-04-24T02:36:57;11.50;99.90
7378;DHT22;3730;50.856;12.776;2023-04-24T02:39:23;11.50;99.90
7378;DHT22;3730;50.856;12.776;2023-04-24T02:41:48;11.80;99.90
7378;DHT22;3730;50.856;12.776;2023-04-24T02:44:14;11.80;1.00
7378;DHT22;3730;50.856;12.776;2023-04-24T02:46:41;11.60;1.00
7378;DHT22;3730;50.856;12.776;2023-04-24T02:49:07;11.40;1.00
7378;DHT22;3730;50.856;12.776;2023-04-24T02:51:33;11.20;1.00
7378;DHT22;3730;50.856;12.776;2023-04-24T02:53:58;12.50;1.00
7378;DHT22;3730;50.856;12.776;2023-04-24T02:56:24;11.50;1.00
7378;DHT22;3730;50.856;12.776;2023-04-24T02:58:50;11.20;1.00
7378;DHT22;3730;50.856;12.776;2023-04-24T03:01:15;11.20;1.00
7378;DHT22;3730;50.856;12.776;2023-04-24T03:03:41;12.00;1.00
7378;DHT22;3730;50.856;12.776;2023-04-24T03:06:07;11.10;1.00
7378;DHT22;3730;50.856;12.776;2023-04-24T03:08:33;11.50;1.00
7378;DHT22;3730;50.856;12.776;2023-04-24T03:10:59;11.60;1.00
7378;DHT22;3730;50.856;12.776;2023-04-24T03:13:25;11.10;1.00
7378;DHT22;3730;50.856;12.776;2023-04-24T03:15:50;11.10;1.00
7378;DHT22;3730;50.856;12.776;2023-04-24T03:18:16;11.10;1.00
7378;DHT22;3730;50.856;12.776;2023-04-24T03:20:42;11.10;1.00
7378;DHT22;3730;50.856;12.776;2023-04-24T03:23:07;11.10;1.00
7378;DHT22;3730;50.856;12.776;2023-04-24T03:25:33;11.10;1.00
7378;DHT22;3730;50.856;12.776;2023-04-24T03:27:58;12.30;1.00
7378;DHT22;3730;50.856;12.776;2023-04-24T03:30:24;11.10;1.00
7378;DHT22;3730;50.856;12.776;2023-04-24T03:32:50;11.00;28.10
7378;DHT22;3730;50.856;12.776;2023-04-24T03:35:15;11.10;1.00
7378;DHT22;3730;50.856;12.776;2023-04-24T03:37:41;11.00;1.00
7378;DHT22;3730;50.856;12.776;2023-04-24T03:40:07;11.00;43.10
7378;DHT22;3730;50.856;12.776;2023-04-24T03:42:33;11.00;33.10
7378;DHT22;3730;50.856;12.776;2023-04-24T03:44:59;11.00;71.40
7378;DHT22;3730;50.856;12.776;2023-04-24T03:47:24;11.00;31.50
7378;DHT22;3730;50.856;12.776;2023-04-24T03:49:50;11.00;10.30
7378;DHT22;3730;50.856;12.776;2023-04-24T03:52:15;11.30;1.00
7378;DHT22;3730;50.856;12.776;2023-04-24T03:54:41;11.00;1.00
7378;DHT22;3730;50.856;12.776;2023-04-24T03:57:07;11.70;1.00
7378;DHT22;3730;50.856;12.776;2023-04-24T03:59:32;11.00;1.00
7378;DHT22;3730;50.856;12.776;2023-04-24T04:01:58;11.00;1.00
7378;DHT22;3730;50.856;12.776;2023-04-24T04:04:23;11.00;1.00
7378;DHT22;3730;50.856;12.776;2023-04-24T04:06:49;11.00;1.00
7378;DHT22;3730;50.856;12.776;2023-04-24T04:09:15;11.00;1.00
7378;DHT22;3730;50.856;12.776;2023-04-24T04:11:40;11.90;1.00
7378;DHT22;3730;50.856;12.776;2023-04-24T04:14:06;11.00;1.00
7378;DHT22;3730;50.856;12.776;2023-04-24T04:16:32;11.00;1.00
7378;DHT22;3730;50.856;12.776;2023-04-24T04:18:57;10.90;1.00
7378;DHT22;3730;50.856;12.776;2023-04-24T04:21:23;10.90;1.00
7378;DHT22;3730;50.856;12.776;2023-04-24T04:23:49;10.90;1.00
7378;DHT22;3730;50.856;12.776;2023-04-24T04:26:15;11.00;1.00
7378;DHT22;3730;50.856;12.776;2023-04-24T04:28:40;10.90;1.00
7378;DHT22;3730;50.856;12.776;2023-04-24T04:31:06;10.90;99.90
7378;DHT22;3730;50.856;12.776;2023-04-24T04:33:33;11.00;99.90
7378;DHT22;3730;50.856;12.776;2023-04-24T04:35:59;11.00;99.90
7378;DHT22;3730;50.856;12.776;2023-04-24T04:38:25;11.00;99.90
7378;DHT22;3730;50.856;12.776;2023-04-24T04:40:55;11.10;99.90
7378;DHT22;3730;50.856;12.776;2023-04-24T04:43:23;11.00;99.90
7378;DHT22;3730;50.856;12.776;2023-04-24T04:45:49;11.10;95.80
7378;DHT22;3730;50.856;12.776;2023-04-24T04:48:16;11.10;1.00
7378;DHT22;3730;50.856;12.776;2023-04-24T04:50:42;11.00;1.00
7378;DHT22;3730;50.856;12.776;2023-04-24T04:53:08;11.10;1.00
7378;DHT22;3730;50.856;12.776;2023-04-24T04:55:34;11.20;1.00
7378;DHT22;3730;50.856;12.776;2023-04-24T04:58:00;11.00;1.00
7378;DHT22;3730;50.856;12.776;2023-04-24T05:00:26;11.00;1.00
7378;DHT22;3730;50.856;12.776;2023-04-24T05:02:52;11.00;99.90
7378;DHT22;3730;50.856;12.776;2023-04-24T05:05:18;11.20;99.90
7378;DHT22;3730;50.856;12.776;2023-04-24T05:07:44;11.10;99.90
7378;DHT22;3730;50.856;12.776;2023-04-24T05:10:10;11.10;99.90
7378;DHT22;3730;50.856;12.776;2023-04-24T05:12:36;11.10;99.90
7378;DHT22;3730;50.856;12.776;2023-04-24T05:15:02;11.10;99.90
7378;DHT22;3730;50.856;12.776;2023-04-24T05:17:28;11.10;99.90
7378;DHT22;3730;50.856;12.776;2023-04-24T05:19:54;11.10;99.90
7378;DHT22;3730;50.856;12.776;2023-04-24T05:22:20;11.70;99.90
7378;DHT22;3730;50.856;12.776;2023-04-24T05:24:46;11.10;99.90
7378;DHT22;3730;50.856;12.776;2023-04-24T05:27:12;11.10;1.00
7378;DHT22;3730;50.856;12.776;2023-04-24T05:29:38;11.50;99.90
7378;DHT22;3730;50.856;12.776;2023-04-24T05:32:04;11.10;99.90
7378;DHT22;3730;50.856;12.776;2023-04-24T05:34:30;11.10;1.00
7378;DHT22;3730;50.856;12.776;2023-04-24T05:36:55;11.10;99.90
7378;DHT22;3730;50.856;12.776;2023-04-24T05:39:21;11.10;99.90
7378;DHT22;3730;50.856;12.776;2023-04-24T05:41:47;11.10;1.00
7378;DHT22;3730;50.856;12.776;2023-04-24T05:44:12;11.10;99.90
7378;DHT22;3730;50.856;12.776;2023-04-24T05:46:38;11.10;99.90
7378;DHT22;3730;50.856;12.776;2023-04-24T05:49:03;11.10;1.00
7378;DHT22;3730;50.856;12.776;2023-04-24T05:51:29;11.20;99.90
7378;DHT22;3730;50.856;12.776;2023-04-24T05:53:54;11.30;1.00
7378;DHT22;3730;50.856;12.776;2023-04-24T05:56:20;11.30;1.00
7378;DHT22;3730;50.856;12.776;2023-04-24T05:58:46;11.30;1.00
7378;DHT22;3730;50.856;12.776;2023-04-24T06:01:13;11.40;1.00
7378;DHT22;3730;50.856;12.776;2023-04-24T06:03:40;11.40;99.90
7378;DHT22;3730;50.856;12.776;2023-04-24T06:06:07;11.30;1.00
7378;DHT22;3730;50.856;12.776;2023-04-24T06:08:32;11.30;1.00
7378;DHT22;3730;50.856;12.776;2023-04-24T06:10:58;11.40;1.00
7378;DHT22;3730;50.856;12.776;2023-04-24T06:13:24;11.40;1.00
7378;DHT22;3730;50.856;12.776;2023-04-24T06:15:50;11.50;99.90
7378;DHT22;3730;50.856;12.776;2023-04-24T06:18:16;11.40;1.00
7378;DHT22;3730;50.856;12.776;2023-04-24T06:20:41;11.40;1.00
7378;DHT22;3730;50.856;12.776;2023-04-24T06:23:07;11.40;1.00
7378;DHT22;3730;50.856;12.776;2023-04-24T06:25:33;11.70;1.00
7378;DHT22;3730;50.856;12.776;2023-04-24T06:27:58;11.40;78.10
7378;DHT22;3730;50.856;12.776;2023-04-24T06:30:24;11.40;99.90
7378;DHT22;3730;50.856;12.776;2023-04-24T06:32:50;11.50;1.00
7378;DHT22;3730;50.856;12.776;2023-04-24T06:35:16;11.40;1.00
7378;DHT22;3730;50.856;12.776;2023-04-24T06:37:42;11.40;1.00
7378;DHT22;3730;50.856;12.776;2023-04-24T06:40:09;11.40;1.00
7378;DHT22;3730;50.856;12.776;2023-04-24T06:42:35;11.40;1.00
7378;DHT22;3730;50.856;12.776;2023-04-24T06:45:02;8.30;1.00
7378;DHT22;3730;50.856;12.776;2023-04-24T06:47:29;11.50;1.00
7378;DHT22;3730;50.856;12.776;2023-04-24T06:49:54;11.50;99.90
7378;DHT22;3730;50.856;12.776;2023-04-24T06:52:20;11.50;1.00
7378;DHT22;3730;50.856;12.776;2023-04-24T06:54:46;11.50;1.00
7378;DHT22;3730;50.856;12.776;2023-04-24T06:57:11;11.60;1.00
7378;DHT22;3730;50.856;12.776;2023-04-24T06:59:37;11.50;1.00
7378;DHT22;3730;50.856;12.776;2023-04-24T07:02:03;11.60;1.00
7378;DHT22;3730;50.856;12.776;2023-04-24T07:04:30;11.70;1.00
7378;DHT22;3730;50.856;12.776;2023-04-24T07:06:56;11.70;1.00
7378;DHT22;3730;50.856;12.776;2023-04-24T07:09:31;11.70;1.00
7378;DHT22;3730;50.856;12.776;2023-04-24T07:11:57;11.70;1.00
7378;DHT22;3730;50.856;12.776;2023-04-24T07:14:22;11.70;1.00
7378;DHT22;3730;50.856;12.776;2023-04-24T07:16:48;12.30;99.90
7378;DHT22;3730;50.856;12.776;2023-04-24T07:19:14;11.60;99.90
7378;DHT22;3730;50.856;12.776;2023-04-24T07:21:40;11.70;99.90
7378;DHT22;3730;50.856;12.776;2023-04-24T07:24:08;11.70;99.90
7378;DHT22;3730;50.856;12.776;2023-04-24T07:26:37;12.10;99.90
7378;DHT22;3730;50.856;12.776;2023-04-24T07:29:03;11.70;99.90
7378;DHT22;3730;50.856;12.776;2023-04-24T07:31:28;11.70;99.90
7378;DHT22;3730;50.856;12.776;2023-04-24T07:33:54;11.80;99.90
7378;DHT22;3730;50.856;12.776;2023-04-24T07:36:23;12.30;99.90
7378;DHT22;3730;50.856;12.776;2023-04-24T07:38:49;11.90;99.90
7378;DHT22;3730;50.856;12.776;2023-04-24T07:41:15;11.90;81.00
7378;DHT22;3730;50.856;12.776;2023-04-24T07:43:41;11.90;1.00
7378;DHT22;3730;50.856;12.776;2023-04-24T07:46:08;11.90;1.00
7378;DHT22;3730;50.856;12.776;2023-04-24T07:48:34;12.00;1.00
7378;DHT22;3730;50.856;12.776;2023-04-24T07:50:59;11.90;99.90
7378;DHT22;3730;50.856;12.776;2023-04-24T07:53:25;12.00;99.90
7378;DHT22;3730;50.856;12.776;2023-04-24T07:55:51;12.10;99.90
7378;DHT22;3730;50.856;12.776;2023-04-24T07:58:16;12.10;99.90
7378;DHT22;3730;50.856;12.776;2023-04-24T08:00:42;12.20;99.90
7378;DHT22;3730;50.856;12.776;2023-04-24T08:03:08;12.30;99.90
7378;DHT22;3730;50.856;12.776;2023-04-24T08:05:33;12.30;99.90
7378;DHT22;3730;50.856;12.776;2023-04-24T08:07:59;12.30;99.90
7378;DHT22;3730;50.856;12.776;2023-04-24T08:10:25;12.30;99.90
7378;DHT22;3730;50.856;12.776;2023-04-24T08:12:51;12.40;93.30
7378;DHT22;3730;50.856;12.776;2023-04-24T08:15:17;12.30;77.00
7378;DHT22;3730;50.856;12.776;2023-04-24T08:17:43;12.30;85.50
7378;DHT22;3730;50.856;12.776;2023-04-24T08:20:10;12.30;88.40
7378;DHT22;3730;50.856;12.776;2023-04-24T08:22:42;12.30;21.80
7378;DHT22;3730;50.856;12.776;2023-04-24T08:25:09;12.30;28.20
7378;DHT22;3730;50.856;12.776;2023-04-24T08:27:35;12.70;3.90
7378;DHT22;3730;50.856;12.776;2023-04-24T08:30:03;12.50;1.00
7378;DHT22;3730;50.856;12.776;2023-04-24T08:32:29;12.30;1.00
7378;DHT22;3730;50.856;12.776;2023-04-24T08:34:55;12.30;1.00
7378;DHT22;3730;50.856;12.776;2023-04-24T08:37:22;12.30;1.00
7378;DHT22;3730;50.856;12.776;2023-04-24T08:39:50;12.40;1.00
7378;DHT22;3730;50.856;12.776;2023-04-24T08:42:17;12.40;1.00
7378;DHT22;3730;50.856;12.776;2023-04-24T08:44:43;12.50;1.00
7378;DHT22;3730;50.856;12.776;2023-04-24T08:47:10;12.50;1.00
7378;DHT22;3730;50.856;12.776;2023-04-24T08:49:37;12.60;1.00
7378;DHT22;3730;50.856;12.776;2023-04-24T08:52:04;12.60;1.00
7378;DHT22;3730;50.856;12.776;2023-04-24T08:54:31;12.60;1.00
7378;DHT22;3730;50.856;12.776;2023-04-24T08:57:00;12.70;1.00
7378;DHT22;3730;50.856;12.776;2023-04-24T08:59:32;12.60;1.00
7378;DHT22;3730;50.856;12.776;2023-04-24T09:01:59;12.60;1.00
7378;DHT22;3730;50.856;12.776;2023-04-24T09:04:25;12.70;1.00
7378;DHT22;3730;50.856;12.776;2023-04-24T09:06:55;12.70;1.00
7378;DHT22;3730;50.856;12.776;2023-04-24T09:09:22;12.70;1.00
7378;DHT22;3730;50.856;12.776;2023-04-24T09:11:50;12.70;1.00
7378;DHT22;3730;50.856;12.776;2023-04-24T09:14:16;12.80;1.00
7378;DHT22;3730;50.856;12.776;2023-04-24T09:16:42;12.70;1.00
7378;DHT22;3730;50.856;12.776;2023-04-24T09:19:08;12.80;1.00
7378;DHT22;3730;50.856;12.776;2023-04-24T09:21:34;13.40;1.00
7378;DHT22;3730;50.856;12.776;2023-04-24T09:24:03;12.80;1.00
7378;DHT22;3730;50.856;12.776;2023-04-24T09:26:34;13.20;1.00
7378;DHT22;3730;50.856;12.776;2023-04-24T09:29:00;12.80;1.00
7378;DHT22;3730;50.856;12.776;2023-04-24T09:31:27;12.90;1.00
7378;DHT22;3730;50.856;12.776;2023-04-24T09:33:58;13.00;1.00
7378;DHT22;3730;50.856;12.776;2023-04-24T09:36:31;12.90;1.00
7378;DHT22;3730;50.856;12.776;2023-04-24T09:38:59;12.90;1.00
7378;DHT22;3730;50.856;12.776;2023-04-24T09:41:26;13.00;1.00
7378;DHT22;3730;50.856;12.776;2023-04-24T09:43:54;13.00;1.00
7378;DHT22;3730;50.856;12.776;2023-04-24T09:46:20;13.00;1.00
7378;DHT22;3730;50.856;12.776;2023-04-24T09:48:47;13.00;1.00
7378;DHT22;3730;50.856;12.776;2023-04-24T09:51:13;13.10;1.00
7378;DHT22;3730;50.856;12.776;2023-04-24T09:53:45;13.10;99.90
7378;DHT22;3730;50.856;12.776;2023-04-24T09:56:11;13.00;99.90
7378;DHT22;3730;50.856;12.776;2023-04-24T09:58:40;13.40;99.90
7378;DHT22;3730;50.856;12.776;2023-04-24T10:01:06;13.10;99.90
7378;DHT22;3730;50.856;12.776;2023-04-24T10:03:35;13.30;99.90
7378;DHT22;3730;50.856;12.776;2023-04-24T11:11:04;13.40;99.90
7378;DHT22;3730;50.856;12.776;2023-04-24T15:56:08;13.90;64.00
7378;DHT22;3730;50.856;12.776;2023-04-24T15:58:34;12.80;1.00
7378;DHT22;3730;50.856;12.776;2023-04-24T16:03:26;12.20;1.00
7378;DHT22;3730;50.856;12.776;2023-04-24T16:05:52;12.70;1.00
7378;DHT22;3730;50.856;12.776;2023-04-24T16:08:18;12.60;1.00
7378;DHT22;3730;50.856;12.776;2023-04-24T16:10:44;13.00;1.00
7378;DHT22;3730;50.856;12.776;2023-04-24T16:13:11;13.00;1.00
7378;DHT22;3730;50.856;12.776;2023-04-24T16:15:38;12.90;1.00
7378;DHT22;3730;50.856;12.776;2023-04-24T16:18:04;12.70;1.00
7378;DHT22;3730;50.856;12.776;2023-04-24T16:20:30;12.60;1.00
7378;DHT22;3730;50.856;12.776;2023-04-24T16:22:55;12.60;1.00
7378;DHT22;3730;50.856;12.776;2023-04-24T16:25:21;12.50;1.00
7378;DHT22;3730;50.856;12.776;2023-04-24T16:27:46;12.50;1.00
7378;DHT22;3730;50.856;12.776;2023-04-24T16:30:13;12.50;1.00
7378;DHT22;3730;50.856;12.776;2023-04-24T16:32:39;12.50;1.00
7378;DHT22;3730;50.856;12.776;2023-04-24T16:35:05;12.80;1.00
7378;DHT22;3730;50.856;12.776;2023-04-24T16:37:30;12.60;1.00
7378;DHT22;3730;50.856;12.776;2023-04-24T16:39:56;13.40;1.00
7378;DHT22;3730;50.856;12.776;2023-04-24T16:42:22;13.30;1.00
7378;DHT22;3730;50.856;12.776;2023-04-24T16:44:47;12.60;1.00
7378;DHT22;3730;50.856;12.776;2023-04-24T16:47:13;12.60;1.00
7378;DHT22;3730;50.856;12.776;2023-04-24T16:49:40;12.60;1.00
7378;DHT22;3730;50.856;12.776;2023-04-24T16:52:06;12.50;1.00
7378;DHT22;3730;50.856;12.776;2023-04-24T16:54:32;12.40;1.00
7378;DHT22;3730;50.856;12.776;2023-04-24T16:57:00;12.40;1.00
7378;DHT22;3730;50.856;12.776;2023-04-24T16:59:25;12.20;1.00
7378;DHT22;3730;50.856;12.776;2023-04-24T17:01:52;12.10;1.00
7378;DHT22;3730;50.856;12.776;2023-04-24T17:04:18;12.10;1.00
7378;DHT22;3730;50.856;12.776;2023-04-24T17:06:43;12.10;1.00
7378;DHT22;3730;50.856;12.776;2023-04-24T17:09:09;12.70;1.00
7378;DHT22;3730;50.856;12.776;2023-04-24T17:11:37;11.90;1.00
7378;DHT22;3730;50.856;12.776;2023-04-24T17:14:03;12.50;1.00
7378;DHT22;3730;50.856;12.776;2023-04-24T17:16:29;12.20;1.00
7378;DHT22;3730;50.856;12.776;2023-04-24T17:18:54;11.80;1.00
7378;DHT22;3730;50.856;12.776;2023-04-24T17:21:20;11.70;1.00
7378;DHT22;3730;50.856;12.776;2023-04-24T17:23:45;12.00;1.00
7378;DHT22;3730;50.856;12.776;2023-04-24T17:26:11;12.10;1.00
7378;DHT22;3730;50.856;12.776;2023-04-24T17:28:37;11.70;1.00
7378;DHT22;3730;50.856;12.776;2023-04-24T17:31:02;11.70;1.00
7378;DHT22;3730;50.856;12.776;2023-04-24T17:33:29;11.70;1.00
7378;DHT22;3730;50.856;12.776;2023-04-24T17:35:55;12.20;1.00
7378;DHT22;3730;50.856;12.776;2023-04-24T17:38:22;11.70;1.00
7378;DHT22;3730;50.856;12.776;2023-04-24T17:40:49;11.70;26.50
7378;DHT22;3730;50.856;12.776;2023-04-24T17:43:21;11.90;46.80
7378;DHT22;3730;50.856;12.776;2023-04-24T17:45:48;12.00;72.10
7378;DHT22;3730;50.856;12.776;2023-04-24T18:02:58;11.80;53.70
7378;DHT22;3730;50.856;12.776;2023-04-24T18:05:36;11.00;99.90
7378;DHT22;3730;50.856;12.776;2023-04-24T19:38:16;10.80;1.00
7378;DHT22;3730;50.856;12.776;2023-04-24T19:40:42;10.50;1.00
7378;DHT22;3730;50.856;12.776;2023-04-24T19:43:08;10.00;1.00
7378;DHT22;3730;50.856;12.776;2023-04-24T19:45:33;9.90;1.00
7378;DHT22;3730;50.856;12.776;2023-04-24T19:47:59;10.70;1.00
7378;DHT22;3730;50.856;12.776;2023-04-24T19:50:25;10.20;1.00
7378;DHT22;3730;50.856;12.776;2023-04-24T19:52:51;10.50;1.00
7378;DHT22;3730;50.856;12.776;2023-04-24T19:55:16;10.00;1.00
7378;DHT22;3730;50.856;12.776;2023-04-24T19:57:42;9.90;1.00
7378;DHT22;3730;50.856;12.776;2023-04-24T20:00:08;9.90;1.00
7378;DHT22;3730;50.856;12.776;2023-04-24T20:02:34;10.00;1.00
7378;DHT22;3730;50.856;12.776;2023-04-24T20:05:00;10.00;1.00
7378;DHT22;3730;50.856;12.776;2023-04-24T20:07:25;10.00;1.00
7378;DHT22;3730;50.856;12.776;2023-04-24T20:09:51;10.00;1.00
7378;DHT22;3730;50.856;12.776;2023-04-24T20:12:16;9.80;1.00
7378;DHT22;3730;50.856;12.776;2023-04-24T20:14:42;9.80;1.00
7378;DHT22;3730;50.856;12.776;2023-04-24T20:17:08;9.90;1.00
7378;DHT22;3730;50.856;12.776;2023-04-24T20:19:33;10.10;1.00
7378;DHT22;3730;50.856;12.776;2023-04-24T20:21:59;9.90;1.00
7378;DHT22;3730;50.856;12.776;2023-04-24T20:24:25;10.70;1.00
7378;DHT22;3730;50.856;12.776;2023-04-24T20:26:50;9.90;1.00
7378;DHT22;3730;50.856;12.776;2023-04-24T20:29:16;9.80;1.00
7378;DHT22;3730;50.856;12.776;2023-04-24T20:31:42;10.10;1.00
7378;DHT22;3730;50.856;12.776;2023-04-24T20:34:07;10.70;1.00
7378;DHT22;3730;50.856;12.776;2023-04-24T20:36:33;9.90;1.00
7378;DHT22;3730;50.856;12.776;2023-04-24T20:38:59;9.70;1.00
7378;DHT22;3730;50.856;12.776;2023-04-24T20:41:25;9.70;1.00
7378;DHT22;3730;50.856;12.776;2023-04-24T20:43:52;9.70;1.00
7378;DHT22;3730;50.856;12.776;2023-04-24T20:46:18;9.80;1.00
7378;DHT22;3730;50.856;12.776;2023-04-24T20:48:43;9.80;1.00
7378;DHT22;3730;50.856;12.776;2023-04-24T20:51:09;9.60;1.00
7378;DHT22;3730;50.856;12.776;2023-04-24T20:53:34;9.70;1.00
7378;DHT22;3730;50.856;12.776;2023-04-24T20:56:00;9.80;1.00
7378;DHT22;3730;50.856;12.776;2023-04-24T20:58:26;10.20;1.00
7378;DHT22;3730;50.856;12.776;2023-04-24T21:00:54;9.70;1.00
7378;DHT22;3730;50.856;12.776;2023-04-24T21:03:19;9.70;1.00
7378;DHT22;3730;50.856;12.776;2023-04-24T21:05:45;9.70;1.00
7378;DHT22;3730;50.856;12.776;2023-04-24T21:08:11;9.70;1.00
7378;DHT22;3730;50.856;12.776;2023-04-24T21:10:36;9.70;1.00
7378;DHT22;3730;50.856;12.776;2023-04-24T21:13:02;10.00;1.00
7378;DHT22;3730;50.856;12.776;2023-04-24T21:15:28;9.60;1.00
7378;DHT22;3730;50.856;12.776;2023-04-24T21:17:54;9.60;1.00
7378;DHT22;3730;50.856;12.776;2023-04-24T21:20:19;9.60;1.00
7378;DHT22;3730;50.856;12.776;2023-04-24T21:22:45;9.50;1.00
7378;DHT22;3730;50.856;12.776;2023-04-24T21:25:10;9.70;1.00
7378;DHT22;3730;50.856;12.776;2023-04-24T21:27:36;9.70;1.00
7378;DHT22;3730;50.856;12.776;2023-04-24T21:30:04;9.30;1.00
7378;DHT22;3730;50.856;12.776;2023-04-24T21:32:30;9.30;1.00
7378;DHT22;3730;50.856;12.776;2023-04-24T21:34:55;9.50;1.00
7378;DHT22;3730;50.856;12.776;2023-04-24T21:37:24;10.00;1.00
7378;DHT22;3730;50.856;12.776;2023-04-24T21:39:50;9.30;1.00
7378;DHT22;3730;50.856;12.776;2023-04-24T21:42:16;9.20;1.00
7378;DHT22;3730;50.856;12.776;2023-04-24T21:44:41;9.30;1.00
7378;DHT22;3730;50.856;12.776;2023-04-24T21:47:07;10.00;1.00
7378;DHT22;3730;50.856;12.776;2023-04-24T21:49:33;9.10;1.00
7378;DHT22;3730;50.856;12.776;2023-04-24T21:51:58;10.70;1.00
7378;DHT22;3730;50.856;12.776;2023-04-24T21:54:24;9.10;1.00
7378;DHT22;3730;50.856;12.776;2023-04-24T21:56:49;9.50;1.00
7378;DHT22;3730;50.856;12.776;2023-04-24T21:59:15;9.00;1.00
7378;DHT22;3730;50.856;12.776;2023-04-24T22:01:41;9.20;1.00
7378;DHT22;3730;50.856;12.776;2023-04-24T22:04:08;9.00;1.00
7378;DHT22;3730;50.856;12.776;2023-04-24T22:06:34;8.90;1.00
7378;DHT22;3730;50.856;12.776;2023-04-24T22:09:00;8.90;1.00
7378;DHT22;3730;50.856;12.776;2023-04-24T22:11:26;8.80;1.00
7378;DHT22;3730;50.856;12.776;2023-04-24T22:13:52;9.50;1.00
7378;DHT22;3730;50.856;12.776;2023-04-24T22:16:20;9.00;1.00
7378;DHT22;3730;50.856;12.776;2023-04-24T22:18:47;8.80;1.00
7378;DHT22;3730;50.856;12.776;2023-04-24T22:21:13;8.80;1.00
7378;DHT22;3730;50.856;12.776;2023-04-24T22:23:39;9.00;1.00
7378;DHT22;3730;50.856;12.776;2023-04-24T22:26:05;8.80;1.00
7378;DHT22;3730;50.856;12.776;2023-04-24T22:28:31;8.70;1.00
7378;DHT22;3730;50.856;12.776;2023-04-24T22:30:56;8.70;1.00
7378;DHT22;3730;50.856;12.776;2023-04-24T22:33:22;8.70;1.00
7378;DHT22;3730;50.856;12.776;2023-04-24T22:35:48;8.70;1.00
7378;DHT22;3730;50.856;12.776;2023-04-24T23:00:15;9.30;1.00
7378;DHT22;3730;50.856;12.776;2023-04-24T23:02:42;8.30;1.00
